createdAt,value
2022-12-06T00:01:47.680Z,96518.63
2022-12-06T00:04:18.258Z,96497.00
2022-12-06T00:06:49.748Z,96503.63
2022-12-06T00:09:24.488Z,96517.47
2022-12-06T00:11:54.193Z,96516.88
2022-12-06T00:14:23.924Z,96522.06
2022-12-06T00:16:53.251Z,96520.84
2022-12-06T00:19:24.517Z,96506.31
2022-12-06T00:21:53.574Z,96499.53
2022-12-06T00:24:23.721Z,96479.34
2022-12-06T00:26:53.013Z,96507.91
2022-12-06T00:29:24.467Z,96494.25
2022-12-06T00:31:53.831Z,96508.72
2022-12-06T00:34:22.930Z,96497.94
2022-12-06T00:36:52.003Z,96509.13
2022-12-06T00:39:20.909Z,96480.16
2022-12-06T00:41:49.897Z,96462.88
2022-12-06T00:44:19.148Z,96483.31
2022-12-06T00:46:48.180Z,96484.31
2022-12-06T00:49:17.273Z,96469.53
2022-12-06T00:51:46.216Z,96509.78
2022-12-06T00:54:17.036Z,96503.78
2022-12-06T00:56:45.855Z,96489.53
2022-12-06T00:59:14.768Z,96500.16
2022-12-06T01:01:44.319Z,96499.38
2022-12-06T01:04:13.970Z,96484.03
2022-12-06T01:06:42.886Z,96500.38
2022-12-06T01:09:13.018Z,96496.38
2022-12-06T01:11:41.868Z,96486.78
2022-12-06T01:14:10.722Z,96497.97
2022-12-06T01:16:39.758Z,96487.78
2022-12-06T01:19:09.115Z,96475.78
2022-12-06T01:21:38.022Z,96462.84
2022-12-06T01:24:07.328Z,96478.81
2022-12-06T01:26:36.932Z,96482.38
2022-12-06T01:29:06.608Z,96480.81
2022-12-06T01:31:38.521Z,96470.16
2022-12-06T01:34:14.705Z,96465.81
2022-12-06T01:36:44.596Z,96456.91
2022-12-06T01:39:13.829Z,96480.63
2022-12-06T01:41:42.771Z,96466.09
2022-12-06T01:44:57.162Z,96479.03
2022-12-06T01:47:44.632Z,96488.06
2022-12-06T01:50:20.357Z,96483.28
2022-12-06T01:53:09.508Z,96501.66
2022-12-06T01:55:40.894Z,96477.22
2022-12-06T01:58:19.609Z,96488.06
2022-12-06T02:00:49.349Z,96493.50
2022-12-06T02:03:26.147Z,96491.50
2022-12-06T02:05:57.335Z,96492.88
2022-12-06T02:08:27.523Z,96504.25
2022-12-06T02:10:56.814Z,96511.47
2022-12-06T02:13:27.379Z,96535.28
2022-12-06T02:16:20.845Z,96533.03
2022-12-06T02:18:55.209Z,96545.69
2022-12-06T02:21:34.506Z,96563.69
2022-12-06T02:24:44.577Z,96549.88
2022-12-06T02:27:35.326Z,96530.00
2022-12-06T02:30:37.393Z,96539.19
2022-12-06T02:33:21.381Z,96524.44
2022-12-06T02:36:06.545Z,96528.72
2022-12-06T02:38:53.824Z,96533.44
2022-12-06T02:42:08.185Z,96536.75
2022-12-06T02:44:42.484Z,96550.38
2022-12-06T02:47:13.911Z,96555.81
2022-12-06T02:49:47.260Z,96567.22
2022-12-06T02:52:18.685Z,96561.59
2022-12-06T02:54:50.072Z,96546.41
2022-12-06T02:57:28.671Z,96553.00
2022-12-06T02:59:57.959Z,96552.63
2022-12-06T03:02:28.429Z,96527.88
2022-12-06T03:05:21.884Z,96543.84
2022-12-06T03:07:51.835Z,96510.94
2022-12-06T03:10:31.881Z,96547.00
2022-12-06T03:13:21.114Z,96547.44
2022-12-06T03:16:00.931Z,96540.69
2022-12-06T03:18:43.384Z,96548.59
2022-12-06T03:21:16.428Z,96537.38
2022-12-06T03:23:49.951Z,96540.28
2022-12-06T03:26:24.275Z,96536.81
2022-12-06T03:28:57.043Z,96540.50
2022-12-06T03:31:28.953Z,96545.22
2022-12-06T03:34:02.827Z,96562.75
2022-12-06T03:36:32.952Z,96554.81
2022-12-06T03:39:07.409Z,96560.97
2022-12-06T03:41:58.266Z,96554.03
2022-12-06T03:44:27.622Z,96561.19
2022-12-06T03:47:03.578Z,96557.22
2022-12-06T03:50:07.132Z,96546.00
2022-12-06T03:52:36.453Z,96537.19
2022-12-06T03:55:06.148Z,96541.22
2022-12-06T03:57:36.080Z,96533.47
2022-12-06T04:00:07.254Z,96540.00
2022-12-06T04:02:40.306Z,96543.25
2022-12-06T04:05:09.657Z,96550.19
2022-12-06T04:07:38.637Z,96556.63
2022-12-06T04:10:08.435Z,96538.31
2022-12-06T04:12:55.636Z,96549.97
2022-12-06T04:15:24.648Z,96545.72
2022-12-06T04:18:11.713Z,96561.47
2022-12-06T04:21:01.204Z,96558.19
2022-12-06T04:23:31.954Z,96559.00
2022-12-06T04:26:00.940Z,96551.13
2022-12-06T04:28:48.246Z,96543.25
2022-12-06T04:31:35.642Z,96553.19
2022-12-06T04:34:23.554Z,96562.63
2022-12-06T04:37:11.539Z,96565.38
2022-12-06T04:39:40.458Z,96543.34
2022-12-06T04:42:28.334Z,96566.50
2022-12-06T04:44:57.525Z,96557.44
2022-12-06T04:47:26.508Z,96564.03
2022-12-06T04:49:55.428Z,96568.06
2022-12-06T04:52:24.603Z,96566.47
2022-12-06T04:54:53.607Z,96562.34
2022-12-06T04:57:24.398Z,96569.97
2022-12-06T04:59:53.481Z,96574.38
2022-12-06T05:02:23.377Z,96566.44
2022-12-06T05:04:52.297Z,96568.44
2022-12-06T05:07:21.918Z,96557.91
2022-12-06T05:09:50.807Z,96580.03
2022-12-06T05:12:19.645Z,96572.97
2022-12-06T05:14:48.535Z,96556.94
2022-12-06T05:19:46.491Z,96588.09
2022-12-06T05:22:15.549Z,96605.56
2022-12-06T05:24:44.470Z,96590.00
2022-12-06T05:27:13.375Z,96594.06
2022-12-06T05:29:42.868Z,96576.81
2022-12-06T05:32:12.670Z,96603.16
2022-12-06T05:34:42.080Z,96596.00
2022-12-06T05:37:11.063Z,96598.69
2022-12-06T05:39:39.984Z,96592.31
2022-12-06T05:42:08.958Z,96576.28
2022-12-06T05:44:38.067Z,96599.91
2022-12-06T05:47:06.852Z,96583.56
2022-12-06T05:49:35.780Z,96560.53
2022-12-06T05:52:04.629Z,96556.84
2022-12-06T05:54:36.613Z,96566.59
2022-12-06T05:57:05.721Z,96557.16
2022-12-06T05:59:34.648Z,96539.41
2022-12-06T06:02:04.984Z,96587.03
2022-12-06T06:04:34.624Z,96597.03
2022-12-06T06:07:03.570Z,96587.25
2022-12-06T06:09:32.412Z,96575.88
2022-12-06T06:12:01.379Z,96589.69
2022-12-06T06:14:32.466Z,96584.78
2022-12-06T06:17:01.494Z,96578.41
2022-12-06T06:19:30.779Z,96581.53
2022-12-06T06:22:00.069Z,96614.34
2022-12-06T06:24:29.129Z,96611.78
2022-12-06T06:27:00.744Z,96601.50
2022-12-06T06:29:29.929Z,96610.69
2022-12-06T06:31:59.303Z,96609.38
2022-12-06T06:34:28.391Z,96616.88
2022-12-06T06:36:57.580Z,96619.31
2022-12-06T06:39:26.633Z,96625.53
2022-12-06T06:41:55.557Z,96613.16
2022-12-06T06:44:24.422Z,96610.19
2022-12-06T06:46:53.427Z,96620.59
2022-12-06T06:49:22.677Z,96600.69
2022-12-06T06:51:51.980Z,96613.44
2022-12-06T06:54:21.008Z,96610.03
2022-12-06T06:56:50.230Z,96611.47
2022-12-06T06:59:19.155Z,96627.69
2022-12-06T07:01:49.284Z,96623.13
2022-12-06T07:04:19.328Z,96632.31
2022-12-06T07:06:48.224Z,96616.00
2022-12-06T07:09:17.209Z,96627.38
2022-12-06T07:11:46.212Z,96625.16
2022-12-06T07:14:15.163Z,96597.28
2022-12-06T07:16:44.103Z,96618.63
2022-12-06T07:19:12.974Z,96635.25
2022-12-06T07:21:41.900Z,96628.69
2022-12-06T07:24:10.774Z,96630.47
2022-12-06T07:26:39.684Z,96648.88
2022-12-06T07:29:08.648Z,96634.97
2022-12-06T07:31:37.561Z,96615.97
2022-12-06T07:34:07.178Z,96633.31
2022-12-06T07:36:36.019Z,96620.75
2022-12-06T07:39:07.888Z,96646.09
2022-12-06T07:41:58.958Z,96641.34
2022-12-06T07:45:03.172Z,96644.66
2022-12-06T07:47:40.304Z,96657.63
2022-12-06T07:50:18.595Z,96651.88
2022-12-06T07:52:49.213Z,96658.41
2022-12-06T07:55:18.753Z,96659.63
2022-12-06T07:57:47.657Z,96655.47
2022-12-06T08:00:17.457Z,96648.69
2022-12-06T08:02:46.904Z,96664.31
2022-12-06T08:05:15.989Z,96653.94
2022-12-06T08:07:45.883Z,96659.78
2022-12-06T08:10:14.971Z,96661.31
2022-12-06T08:12:44.152Z,96658.72
2022-12-06T08:15:16.019Z,96650.75
2022-12-06T08:17:45.960Z,96649.97
2022-12-06T08:20:14.818Z,96653.13
2022-12-06T08:22:43.707Z,96644.59
2022-12-06T08:25:12.607Z,96645.75
2022-12-06T08:27:41.462Z,96628.06
2022-12-06T08:30:10.660Z,96655.59
2022-12-06T08:32:39.621Z,96655.03
2022-12-06T08:35:08.919Z,96648.44
2022-12-06T08:37:37.881Z,96633.66
2022-12-06T08:40:07.637Z,96655.47
2022-12-06T08:42:36.553Z,96647.91
2022-12-06T08:45:06.319Z,96652.16
2022-12-06T08:47:35.289Z,96650.13
2022-12-06T08:50:04.997Z,96664.69
2022-12-06T08:52:33.823Z,96660.75
2022-12-06T08:55:02.801Z,96669.34
2022-12-06T08:57:34.054Z,96672.53
2022-12-06T09:00:03.528Z,96672.16
2022-12-06T09:02:34.659Z,96689.16
2022-12-06T09:05:03.667Z,96666.97
2022-12-06T09:07:32.694Z,96680.78
2022-12-06T09:10:02.238Z,96667.59
2022-12-06T09:12:32.192Z,96671.41
2022-12-06T09:15:01.008Z,96677.00
2022-12-06T09:17:30.529Z,96654.88
2022-12-06T09:20:05.286Z,96666.44
2022-12-06T09:22:35.199Z,96678.59
2022-12-06T09:25:04.504Z,96681.03
2022-12-06T09:27:33.653Z,96678.03
2022-12-06T09:30:03.071Z,96689.22
2022-12-06T09:32:32.537Z,96693.84
2022-12-06T09:35:01.971Z,96685.84
2022-12-06T09:37:33.819Z,96680.44
2022-12-06T09:40:12.373Z,96691.47
2022-12-06T09:43:00.073Z,96706.47
2022-12-06T09:45:56.003Z,96707.66
2022-12-06T09:48:34.481Z,96707.88
2022-12-06T09:51:11.455Z,96704.69
2022-12-06T09:54:34.318Z,96684.09
2022-12-06T09:57:33.266Z,96700.28
2022-12-06T10:00:11.745Z,96710.88
2022-12-06T10:03:15.513Z,96726.31
2022-12-06T10:05:55.056Z,96715.91
2022-12-06T10:09:14.146Z,96716.31
2022-12-06T10:12:01.651Z,96731.28
2022-12-06T10:14:33.274Z,96729.31
2022-12-06T10:17:18.843Z,96728.69
2022-12-06T10:20:07.032Z,96729.50
2022-12-06T10:22:48.328Z,96726.09
2022-12-06T10:25:40.051Z,96730.31
2022-12-06T10:28:36.265Z,96729.50
2022-12-06T10:31:33.934Z,96700.34
2022-12-06T10:34:23.680Z,96717.91
2022-12-06T10:37:22.425Z,96718.91
2022-12-06T10:40:17.344Z,96718.28
2022-12-06T10:42:59.093Z,96721.50
2022-12-06T10:45:56.350Z,96720.69
2022-12-06T10:48:39.067Z,96713.91
2022-12-06T10:51:16.430Z,96719.28
2022-12-06T10:53:55.018Z,96719.16
2022-12-06T10:56:40.257Z,96721.91
2022-12-06T10:59:33.968Z,96729.53
2022-12-06T11:02:25.206Z,96715.16
2022-12-06T11:05:00.180Z,96716.75
2022-12-06T11:07:38.836Z,96721.91
2022-12-06T11:10:27.711Z,96720.72
2022-12-06T11:13:16.019Z,96732.38
2022-12-06T11:15:54.095Z,96731.34
2022-12-06T11:18:24.174Z,96714.75
2022-12-06T11:21:35.081Z,96730.34
2022-12-06T11:24:19.020Z,96733.38
2022-12-06T11:27:17.014Z,96732.38
2022-12-06T11:29:49.069Z,96723.78
2022-12-06T11:32:20.012Z,96720.19
2022-12-06T11:34:55.202Z,96735.16
2022-12-06T11:37:36.095Z,96742.94
2022-12-06T11:40:09.497Z,96743.97
2022-12-06T11:42:39.057Z,96703.63
2022-12-06T11:45:18.954Z,96731.34
2022-12-06T11:47:48.357Z,96703.81
2022-12-06T11:50:35.933Z,96726.53
2022-12-06T11:54:07.572Z,96728.94
2022-12-06T11:56:39.843Z,96719.72
2022-12-06T11:59:33.646Z,96716.56
2022-12-06T12:02:04.924Z,96723.31
2022-12-06T12:04:43.064Z,96725.34
2022-12-06T12:07:18.982Z,96723.16
2022-12-06T12:10:01.530Z,96722.53
2022-12-06T12:13:06.570Z,96726.75
2022-12-06T12:15:36.873Z,96727.56
2022-12-06T12:18:22.441Z,96717.56
2022-12-06T12:20:52.133Z,96723.97
2022-12-06T12:23:28.157Z,96730.38
2022-12-06T12:26:18.632Z,96726.56
2022-12-06T12:29:14.327Z,96732.38
2022-12-06T12:31:59.474Z,96727.16
2022-12-06T12:34:30.652Z,96725.34
2022-12-06T12:37:05.390Z,96726.34
2022-12-06T12:39:46.633Z,96721.78
2022-12-06T12:42:40.879Z,96722.16
2022-12-06T12:45:27.266Z,96732.72
2022-12-06T12:48:01.661Z,96704.81
2022-12-06T12:50:32.972Z,96700.03
2022-12-06T12:53:01.862Z,96730.34
2022-12-06T12:55:31.987Z,96730.13
2022-12-06T12:58:01.465Z,96713.16
2022-12-06T13:00:42.317Z,96717.75
2022-12-06T13:03:42.766Z,96732.31
2022-12-06T13:06:08.434Z,96731.31
2022-12-06T13:08:38.933Z,96713.16
2022-12-06T13:11:09.739Z,96726.94
2022-12-06T13:13:45.285Z,96725.91
2022-12-06T13:16:28.063Z,96731.31
2022-12-06T13:18:59.635Z,96715.75
2022-12-06T13:21:35.980Z,96750.53
2022-12-06T13:24:11.030Z,96737.72
2022-12-06T13:26:56.414Z,96726.56
2022-12-06T13:29:25.236Z,96740.72
2022-12-06T13:31:56.987Z,96745.13
2022-12-06T13:34:37.620Z,96737.72
2022-12-06T13:37:28.780Z,96734.34
2022-12-06T13:39:59.313Z,96742.56
2022-12-06T13:42:38.815Z,96742.13
2022-12-06T13:45:46.126Z,96727.94
2022-12-06T13:48:30.274Z,96727.50
2022-12-06T13:51:03.302Z,96733.91
2022-12-06T13:53:34.676Z,96743.53
2022-12-06T13:56:35.212Z,96737.50
2022-12-06T13:59:26.067Z,96735.34
2022-12-06T14:01:57.629Z,96719.75
2022-12-06T14:07:02.527Z,96729.34
2022-12-06T14:09:43.248Z,96739.13
2022-12-06T14:12:24.132Z,96740.53
2022-12-06T14:15:00.683Z,96726.31
2022-12-06T14:18:08.170Z,96740.72
2022-12-06T14:20:42.650Z,96732.31
2022-12-06T14:23:27.805Z,96740.94
2022-12-06T14:26:20.193Z,96739.53
2022-12-06T14:28:51.501Z,96723.50
2022-12-06T14:31:25.847Z,96719.38
2022-12-06T14:33:56.120Z,96731.13
2022-12-06T14:36:31.765Z,96740.31
2022-12-06T14:39:28.088Z,96747.91
2022-12-06T14:42:17.086Z,96747.72
2022-12-06T14:45:01.950Z,96745.94
2022-12-06T14:47:33.497Z,96749.31
2022-12-06T14:50:21.736Z,96754.72
2022-12-06T14:53:12.313Z,96744.69
2022-12-06T14:56:30.055Z,96748.69
2022-12-06T14:59:01.259Z,96731.50
2022-12-06T15:01:35.174Z,96741.28
2022-12-06T15:04:07.601Z,96739.72
2022-12-06T15:06:38.542Z,96756.72
2022-12-06T15:09:15.878Z,96750.91
2022-12-06T15:12:03.071Z,96754.50
2022-12-06T15:14:40.922Z,96754.50
2022-12-06T15:17:09.705Z,96746.91
2022-12-06T15:19:41.022Z,96749.47
2022-12-06T15:22:25.787Z,96755.47
2022-12-06T15:24:57.077Z,96753.91
2022-12-06T15:27:29.425Z,96754.69
2022-12-06T15:29:58.348Z,96750.31
2022-12-06T15:32:28.040Z,96757.50
2022-12-06T15:34:56.866Z,96741.28
2022-12-06T15:37:44.954Z,96756.28
2022-12-06T15:40:16.218Z,96750.47
2022-12-06T15:42:45.282Z,96719.94
2022-12-06T15:45:16.142Z,96735.50
2022-12-06T15:47:45.565Z,96747.50
2022-12-06T15:50:15.765Z,96732.28
2022-12-06T15:52:44.670Z,96735.69
2022-12-06T15:55:20.355Z,96729.84
2022-12-06T15:57:54.126Z,96731.25
2022-12-06T16:00:25.797Z,96745.88
2022-12-06T16:02:55.357Z,96727.88
2022-12-06T16:05:24.187Z,96731.66
2022-12-06T16:07:53.018Z,96729.44
2022-12-06T16:10:23.299Z,96717.06
2022-12-06T16:13:13.870Z,96736.25
2022-12-06T16:15:42.738Z,96720.69
2022-12-06T16:18:11.673Z,96731.66
2022-12-06T16:20:41.623Z,96740.03
2022-12-06T16:24:11.895Z,96753.06
2022-12-06T16:26:37.084Z,96737.09
2022-12-06T16:29:09.495Z,96740.88
2022-12-06T16:31:41.512Z,96754.47
2022-12-06T16:34:10.984Z,96747.66
2022-12-06T16:37:11.107Z,96740.47
2022-12-06T16:39:40.255Z,96733.09
2022-12-06T16:42:09.001Z,96727.06
2022-12-06T16:44:51.618Z,96728.28
2022-12-06T16:49:49.143Z,96733.66
2022-12-06T16:52:18.409Z,96733.09
2022-12-06T16:54:47.223Z,96733.66
2022-12-06T16:57:16.130Z,96739.69
2022-12-06T16:59:44.966Z,96726.69
2022-12-06T17:02:32.132Z,96734.06
2022-12-06T17:05:06.793Z,96730.28
2022-12-06T17:07:37.337Z,96729.06
2022-12-06T17:12:36.176Z,96735.44
2022-12-06T17:15:06.277Z,96718.44
2022-12-06T17:17:35.082Z,96738.63
2022-12-06T17:20:03.979Z,96726.47
2022-12-06T17:22:32.905Z,96736.03
2022-12-06T17:25:02.034Z,96736.44
2022-12-06T17:27:32.212Z,96729.06
2022-12-06T17:30:01.092Z,96735.25
2022-12-06T17:32:32.161Z,96737.88
2022-12-06T17:35:01.306Z,96718.91
2022-12-06T17:37:31.632Z,96739.47
2022-12-06T17:40:00.460Z,96757.25
2022-12-06T17:42:47.757Z,96743.47
2022-12-06T17:45:19.555Z,96744.25
2022-12-06T17:47:50.736Z,96743.25
2022-12-06T17:50:19.574Z,96757.84
2022-12-06T17:52:49.194Z,96755.44
2022-12-06T17:55:18.208Z,96739.69
2022-12-06T17:57:47.039Z,96758.25
2022-12-06T18:00:17.702Z,96744.69
2022-12-06T18:02:46.899Z,96762.03
2022-12-06T18:05:18.851Z,96746.66
2022-12-06T18:07:47.699Z,96732.69
2022-12-06T18:10:16.722Z,96752.25
2022-12-06T18:15:34.479Z,96764.66
2022-12-06T18:18:03.349Z,96754.63
2022-12-06T18:20:32.248Z,96744.06
2022-12-06T18:23:01.012Z,96760.25
2022-12-06T18:27:58.660Z,96769.84
2022-12-06T18:30:27.390Z,96773.84
2022-12-06T18:32:56.241Z,96771.28
2022-12-06T18:35:25.078Z,96774.84
2022-12-06T18:37:54.236Z,96766.28
2022-12-06T18:40:23.550Z,96778.25
2022-12-06T18:42:52.553Z,96756.72
2022-12-06T18:45:21.464Z,96783.47
2022-12-06T18:47:50.299Z,96786.66
2022-12-06T18:50:19.071Z,96788.66
2022-12-06T18:52:48.176Z,96782.47
2022-12-06T18:55:17.513Z,96782.06
2022-12-06T18:57:46.369Z,96792.06
2022-12-06T19:00:16.778Z,96780.47
2022-12-06T19:02:45.802Z,96761.28
2022-12-06T19:05:27.666Z,96792.66
2022-12-06T19:08:05.121Z,96796.88
2022-12-06T19:10:34.641Z,96771.06
2022-12-06T19:13:05.830Z,96775.28
2022-12-06T19:15:34.978Z,96781.66
2022-12-06T19:18:04.033Z,96782.06
2022-12-06T19:20:33.491Z,96769.88
2022-12-06T19:23:13.397Z,96775.28
2022-12-06T19:28:11.551Z,96783.06
2022-12-06T19:30:41.941Z,96777.88
2022-12-06T19:33:10.917Z,96773.63
2022-12-06T19:35:39.717Z,96790.84
2022-12-06T19:38:08.906Z,96772.25
2022-12-06T19:40:42.057Z,96782.06
2022-12-06T19:43:29.174Z,96768.31
2022-12-06T19:45:57.979Z,96763.91
2022-12-06T19:48:26.845Z,96778.25
2022-12-06T19:50:56.543Z,96756.88
2022-12-06T19:53:25.356Z,96762.47
2022-12-06T19:55:54.207Z,96757.91
2022-12-06T19:58:24.552Z,96731.94
2022-12-06T20:00:54.407Z,96762.47
2022-12-06T20:03:23.429Z,96755.09
2022-12-06T20:06:05.189Z,96732.50
2022-12-06T20:08:35.145Z,96755.44
2022-12-06T20:11:29.504Z,96753.06
2022-12-06T20:14:02.947Z,96749.28
2022-12-06T20:16:33.653Z,96760.28
2022-12-06T20:19:02.585Z,96751.84
2022-12-06T20:21:31.414Z,96749.88
2022-12-06T20:24:01.003Z,96749.91
2022-12-06T20:26:32.048Z,96753.25
2022-12-06T20:29:01.273Z,96753.47
2022-12-06T20:31:32.140Z,96755.09
2022-12-06T20:34:03.641Z,96745.88
2022-12-06T20:36:33.975Z,96747.09
2022-12-06T20:39:03.002Z,96741.28
2022-12-06T20:41:33.840Z,96740.69
2022-12-06T20:44:03.568Z,96741.91
2022-12-06T20:46:33.028Z,96738.72
2022-12-06T20:49:06.196Z,96735.53
2022-12-06T20:51:35.462Z,96745.13
2022-12-06T20:54:07.041Z,96740.31
2022-12-06T20:56:38.523Z,96736.13
2022-12-06T20:59:11.199Z,96731.91
2022-12-06T21:01:42.154Z,96726.69
2022-12-06T21:04:14.226Z,96727.09
2022-12-06T21:06:43.315Z,96730.09
2022-12-06T21:09:12.476Z,96712.88
2022-12-06T21:11:41.467Z,96721.09
2022-12-06T21:14:13.049Z,96717.50
2022-12-06T21:16:43.745Z,96722.69
2022-12-06T21:19:20.078Z,96730.84
2022-12-06T21:21:52.041Z,96730.47
2022-12-06T21:24:22.913Z,96728.84
2022-12-06T21:26:51.690Z,96704.25
2022-12-06T21:29:29.801Z,96720.63
2022-12-06T21:32:02.718Z,96723.44
2022-12-06T21:34:31.625Z,96710.81
2022-12-06T21:37:00.438Z,96729.03
2022-12-06T21:39:29.288Z,96713.47
2022-12-06T21:41:58.163Z,96739.84
2022-12-06T21:44:27.481Z,96738.41
2022-12-06T21:46:56.488Z,96746.63
2022-12-06T21:49:25.478Z,96726.59
2022-12-06T21:52:00.351Z,96740.19
2022-12-06T21:54:30.875Z,96747.81
2022-12-06T21:56:59.575Z,96742.81
2022-12-06T21:59:28.592Z,96733.59
2022-12-06T22:01:57.817Z,96753.22
2022-12-06T22:04:27.101Z,96737.25
2022-12-06T22:06:55.983Z,96752.03
2022-12-06T22:09:24.757Z,96754.81
2022-12-06T22:11:53.761Z,96750.63
2022-12-06T22:14:22.502Z,96738.25
2022-12-06T22:16:51.725Z,96747.38
2022-12-06T22:19:20.650Z,96740.63
2022-12-06T22:21:49.508Z,96753.97
2022-12-06T22:24:18.419Z,96747.81
2022-12-06T22:26:47.334Z,96760.03
2022-12-06T22:29:16.228Z,96731.03
2022-12-06T22:31:45.101Z,96735.25
2022-12-06T22:34:14.111Z,96744.22
2022-12-06T22:36:43.043Z,96745.63
2022-12-06T22:39:12.408Z,96752.59
2022-12-06T22:41:41.684Z,96749.81
2022-12-06T22:44:12.231Z,96748.44
2022-12-06T22:46:41.234Z,96748.00
2022-12-06T22:49:16.558Z,96756.22
2022-12-06T22:51:46.963Z,96736.41
2022-12-06T22:54:16.119Z,96752.03
2022-12-06T22:56:49.259Z,96739.22
2022-12-06T22:59:18.787Z,96757.25
2022-12-06T23:01:48.960Z,96744.03
2022-12-06T23:04:18.117Z,96760.44
2022-12-06T23:06:47.084Z,96750.09
2022-12-06T23:09:17.491Z,96767.66
2022-12-06T23:11:46.417Z,96756.66
2022-12-06T23:14:15.225Z,96751.88
2022-12-06T23:16:45.634Z,96762.28
2022-12-06T23:19:14.485Z,96752.50
2022-12-06T23:21:43.734Z,96781.31
2022-12-06T23:24:14.145Z,96776.28
2022-12-06T23:26:45.933Z,96771.50
2022-12-06T23:29:17.111Z,96768.13
2022-12-06T23:31:46.884Z,96759.13
2022-12-06T23:34:27.218Z,96768.91
2022-12-06T23:36:57.865Z,96782.94
2022-12-06T23:39:26.778Z,96779.75
2022-12-06T23:41:55.809Z,96787.16
2022-12-06T23:44:25.830Z,96770.13
2022-12-06T23:46:55.037Z,96774.94
2022-12-06T23:49:23.918Z,96777.94
2022-12-06T23:51:52.787Z,96775.75
2022-12-06T23:54:21.642Z,96774.97
2022-12-06T23:56:50.736Z,96786.78
2022-12-06T23:59:19.751Z,96783.75
